Barboursville, West Virginia
Current Conditions -  °F | °C
As of 5:51 AM on Tuesday 21 Oct 2014 (Local Time) from KHTS Reporting Station
Overcast Overcast  
Wind Chill: 49°   Ceiling: 1800
Heat Index: 49°   Visibility: 10mi
Dew Point: 48°   Wind: 0mph
Humidity: 97%   Direction: NA
Pressure: 29.9"   Gusts: NA
Location:  38.41°N, 82.29°W
Report Text: KHTS 210951Z 00000KT 10SM BKN018 BKN055 OVC070 09/09 A2990 RMK AO2 SLP125 T00940089
Loading
Personal Weather Stations






























Interactive Weather Map
Tropical Storm Tracking
New forecast layout! Learn more

10-Day Weather Forecast

Advertisements
Track Severe Weather on mobile